sensor_id;sensor_type;location;lat;lon;timestamp;pressure;altitude;pressure_sealevel;temperature;humidity
79138;BME280;68544;45.566;10.238;2023-11-19T00:01:22;63302.78;;;10.92;52.63
79138;BME280;68544;45.566;10.238;2023-11-19T00:03:47;63301.88;;;10.91;53.24
79138;BME280;68544;45.566;10.238;2023-11-19T00:06:13;63302.84;;;10.92;52.45
79138;BME280;68544;45.566;10.238;2023-11-19T00:08:38;63303.66;;;10.93;52.18
79138;BME280;68544;45.566;10.238;2023-11-19T00:11:03;63303.00;;;10.92;53.39
79138;BME280;68544;45.566;10.238;2023-11-19T00:13:29;63302.84;;;10.92;53.26
79138;BME280;68544;45.566;10.238;2023-11-19T00:15:54;63303.00;;;10.92;53.49
79138;BME280;68544;45.566;10.238;2023-11-19T00:18:19;63303.97;;;10.93;53.07
79138;BME280;68544;45.566;10.238;2023-11-19T00:20:45;63305.75;;;10.94;52.19
79138;BME280;68544;45.566;10.238;2023-11-19T00:23:10;63306.38;;;10.95;52.57
79138;BME280;68544;45.566;10.238;2023-11-19T00:25:35;63307.69;;;10.96;52.44
79138;BME280;68544;45.566;10.238;2023-11-19T00:28:00;63308.94;;;10.97;52.58
79138;BME280;68544;45.566;10.238;2023-11-19T00:30:25;63309.81;;;10.98;52.57
79138;BME280;68544;45.566;10.238;2023-11-19T00:32:51;63310.25;;;10.98;53.09
79138;BME280;68544;45.566;10.238;2023-11-19T00:35:16;63310.00;;;10.98;53.05
79138;BME280;68544;45.566;10.238;2023-11-19T00:37:41;63309.22;;;10.97;53.45
79138;BME280;68544;45.566;10.238;2023-11-19T00:40:07;63307.19;;;10.96;54.24
79138;BME280;68544;45.566;10.238;2023-11-19T00:42:35;63305.03;;;10.94;53.94
79138;BME280;68544;45.566;10.238;2023-11-19T00:45:00;63303.72;;;10.92;53.01
79138;BME280;68544;45.566;10.238;2023-11-19T00:47:26;63302.75;;;10.92;52.22
79138;BME280;68544;45.566;10.238;2023-11-19T00:49:51;63302.16;;;10.91;52.39
79138;BME280;68544;45.566;10.238;2023-11-19T00:52:17;63301.88;;;10.91;52.71
79138;BME280;68544;45.566;10.238;2023-11-19T00:54:42;63300.28;;;10.90;52.88
79138;BME280;68544;45.566;10.238;2023-11-19T00:57:08;63298.78;;;10.88;52.97
79138;BME280;68544;45.566;10.238;2023-11-19T00:59:33;63298.59;;;10.88;52.48
79138;BME280;68544;45.566;10.238;2023-11-19T01:01:58;63297.44;;;10.87;51.65
79138;BME280;68544;45.566;10.238;2023-11-19T01:04:28;63297.25;;;10.87;51.64
79138;BME280;68544;45.566;10.238;2023-11-19T01:06:53;63296.66;;;10.86;51.73
79138;BME280;68544;45.566;10.238;2023-11-19T01:09:19;63296.66;;;10.86;52.54
79138;BME280;68544;45.566;10.238;2023-11-19T01:11:44;63297.63;;;10.87;53.77
79138;BME280;68544;45.566;10.238;2023-11-19T01:14:09;63297.19;;;10.87;54.60
79138;BME280;68544;45.566;10.238;2023-11-19T01:16:35;63297.00;;;10.86;54.76
79138;BME280;68544;45.566;10.238;2023-11-19T01:19:00;63296.81;;;10.86;54.68
79138;BME280;68544;45.566;10.238;2023-11-19T01:21:29;63297.00;;;10.86;54.79
79138;BME280;68544;45.566;10.238;2023-11-19T01:23:54;63297.59;;;10.87;54.77
79138;BME280;68544;45.566;10.238;2023-11-19T01:26:20;63298.56;;;10.87;54.15
79138;BME280;68544;45.566;10.238;2023-11-19T01:28:45;63298.91;;;10.88;53.77
79138;BME280;68544;45.566;10.238;2023-11-19T01:31:11;63298.22;;;10.87;54.83
79138;BME280;68544;45.566;10.238;2023-11-19T01:33:37;63298.84;;;10.88;54.12
79138;BME280;68544;45.566;10.238;2023-11-19T01:36:03;63299.22;;;10.89;54.90
79138;BME280;68544;45.566;10.238;2023-11-19T01:38:29;63298.09;;;10.88;55.48
79138;BME280;68544;45.566;10.238;2023-11-19T01:40:56;63296.06;;;10.86;56.06
79138;BME280;68544;45.566;10.238;2023-11-19T01:43:38;63294.19;;;10.84;55.84
79138;BME280;68544;45.566;10.238;2023-11-19T01:46:04;63291.09;;;10.82;57.02
79138;BME280;68544;45.566;10.238;2023-11-19T01:48:30;63289.22;;;10.80;57.04
79138;BME280;68544;45.566;10.238;2023-11-19T01:50:56;63287.66;;;10.78;56.61
79138;BME280;68544;45.566;10.238;2023-11-19T01:53:22;63285.78;;;10.77;57.23
79138;BME280;68544;45.566;10.238;2023-11-19T01:55:47;63285.25;;;10.76;57.27
79138;BME280;68544;45.566;10.238;2023-11-19T01:58:13;63284.53;;;10.76;57.19
79138;BME280;68544;45.566;10.238;2023-11-19T02:00:38;63283.84;;;10.75;57.00
79138;BME280;68544;45.566;10.238;2023-11-19T02:03:05;63283.56;;;10.75;56.46
79138;BME280;68544;45.566;10.238;2023-11-19T02:05:32;63283.38;;;10.74;56.43
79138;BME280;68544;45.566;10.238;2023-11-19T02:07:57;63282.84;;;10.74;56.64
79138;BME280;68544;45.566;10.238;2023-11-19T02:10:23;63282.16;;;10.73;56.59
79138;BME280;68544;45.566;10.238;2023-11-19T02:12:50;63281.72;;;10.73;56.57
79138;BME280;68544;45.566;10.238;2023-11-19T02:15:16;63281.09;;;10.73;56.09
79138;BME280;68544;45.566;10.238;2023-11-19T02:17:44;63279.78;;;10.71;56.80
79138;BME280;68544;45.566;10.238;2023-11-19T02:20:09;63279.31;;;10.71;56.85
79138;BME280;68544;45.566;10.238;2023-11-19T02:22:36;63278.16;;;10.69;56.99
79138;BME280;68544;45.566;10.238;2023-11-19T02:25:04;63277.09;;;10.68;56.92
79138;BME280;68544;45.566;10.238;2023-11-19T02:29:54;63275.63;;;10.66;55.27
79138;BME280;68544;45.566;10.238;2023-11-19T02:32:20;63273.97;;;10.65;55.64
79138;BME280;68544;45.566;10.238;2023-11-19T02:34:45;63272.38;;;10.64;55.43
79138;BME280;68544;45.566;10.238;2023-11-19T02:37:10;63269.81;;;10.61;55.48
79138;BME280;68544;45.566;10.238;2023-11-19T02:39:36;63267.75;;;10.59;55.72
79138;BME280;68544;45.566;10.238;2023-11-19T02:42:02;63262.53;;;10.54;55.05
79138;BME280;68544;45.566;10.238;2023-11-19T02:44:27;63259.41;;;10.51;54.58
79138;BME280;68544;45.566;10.238;2023-11-19T02:46:55;63255.88;;;10.48;54.25
79138;BME280;68544;45.566;10.238;2023-11-19T02:49:21;63252.94;;;10.45;55.35
79138;BME280;68544;45.566;10.238;2023-11-19T02:51:46;63249.44;;;10.42;56.43
79138;BME280;68544;45.566;10.238;2023-11-19T02:54:11;63246.44;;;10.40;56.62
79138;BME280;68544;45.566;10.238;2023-11-19T02:56:37;63244.66;;;10.38;56.59
79138;BME280;68544;45.566;10.238;2023-11-19T02:59:04;63242.75;;;10.37;56.78
79138;BME280;68544;45.566;10.238;2023-11-19T03:01:39;63241.13;;;10.35;56.66
79138;BME280;68544;45.566;10.238;2023-11-19T03:04:08;63238.06;;;10.32;57.24
79138;BME280;68544;45.566;10.238;2023-11-19T03:06:36;63236.19;;;10.31;56.37
79138;BME280;68544;45.566;10.238;2023-11-19T03:09:02;63234.22;;;10.29;56.42
79138;BME280;68544;45.566;10.238;2023-11-19T03:11:31;63232.28;;;10.27;55.88
79138;BME280;68544;45.566;10.238;2023-11-19T03:13:56;63231.59;;;10.27;54.84
79138;BME280;68544;45.566;10.238;2023-11-19T03:16:22;63229.56;;;10.25;55.69
79138;BME280;68544;45.566;10.238;2023-11-19T03:18:47;63226.03;;;10.22;57.05
79138;BME280;68544;45.566;10.238;2023-11-19T03:21:12;63221.53;;;10.18;57.94
79138;BME280;68544;45.566;10.238;2023-11-19T03:23:37;63218.53;;;10.15;58.58
79138;BME280;68544;45.566;10.238;2023-11-19T03:26:05;63216.66;;;10.13;57.95
79138;BME280;68544;45.566;10.238;2023-11-19T03:28:30;63215.06;;;10.12;57.68
79138;BME280;68544;45.566;10.238;2023-11-19T03:30:55;63214.28;;;10.11;57.58
79138;BME280;68544;45.566;10.238;2023-11-19T03:33:21;63213.63;;;10.10;57.48
79138;BME280;68544;45.566;10.238;2023-11-19T03:35:46;63212.03;;;10.09;57.98
79138;BME280;68544;45.566;10.238;2023-11-19T03:38:11;63211.66;;;10.08;57.44
79138;BME280;68544;45.566;10.238;2023-11-19T03:40:37;63210.44;;;10.07;57.53
79138;BME280;68544;45.566;10.238;2023-11-19T03:43:04;63208.81;;;10.06;57.79
79138;BME280;68544;45.566;10.238;2023-11-19T03:45:29;63204.78;;;10.02;58.10
79138;BME280;68544;45.566;10.238;2023-11-19T03:47:54;63201.94;;;10.00;57.96
79138;BME280;68544;45.566;10.238;2023-11-19T03:50:20;63199.28;;;9.97;56.81
79138;BME280;68544;45.566;10.238;2023-11-19T03:52:45;63196.53;;;9.94;56.74
79138;BME280;68544;45.566;10.238;2023-11-19T03:55:11;63193.28;;;9.92;56.80
79138;BME280;68544;45.566;10.238;2023-11-19T03:57:37;63191.84;;;9.90;55.69
79138;BME280;68544;45.566;10.238;2023-11-19T04:00:02;63190.06;;;9.89;55.60
79138;BME280;68544;45.566;10.238;2023-11-19T04:02:34;63188.66;;;9.87;55.57
79138;BME280;68544;45.566;10.238;2023-11-19T04:05:00;63187.34;;;9.86;55.05
79138;BME280;68544;45.566;10.238;2023-11-19T04:07:25;63186.09;;;9.85;55.69
79138;BME280;68544;45.566;10.238;2023-11-19T04:09:50;63183.69;;;9.83;56.98
79138;BME280;68544;45.566;10.238;2023-11-19T04:12:15;63181.03;;;9.80;57.61
79138;BME280;68544;45.566;10.238;2023-11-19T04:14:41;63179.28;;;9.79;57.20
79138;BME280;68544;45.566;10.238;2023-11-19T04:17:06;63176.88;;;9.76;57.87
79138;BME280;68544;45.566;10.238;2023-11-19T04:19:31;63173.63;;;9.74;58.24
79138;BME280;68544;45.566;10.238;2023-11-19T04:21:57;63171.06;;;9.71;58.57
79138;BME280;68544;45.566;10.238;2023-11-19T04:24:23;63170.44;;;9.71;57.59
79138;BME280;68544;45.566;10.238;2023-11-19T04:26:48;63169.19;;;9.70;57.76
79138;BME280;68544;45.566;10.238;2023-11-19T04:29:13;63167.00;;;9.67;57.31
79138;BME280;68544;45.566;10.238;2023-11-19T04:31:40;63166.09;;;9.66;56.73
79138;BME280;68544;45.566;10.238;2023-11-19T04:34:05;63165.81;;;9.66;56.40
79138;BME280;68544;45.566;10.238;2023-11-19T04:36:33;63163.53;;;9.64;57.04
79138;BME280;68544;45.566;10.238;2023-11-19T04:38:59;63162.88;;;9.63;56.92
79138;BME280;68544;45.566;10.238;2023-11-19T04:41:25;63161.31;;;9.62;57.28
79138;BME280;68544;45.566;10.238;2023-11-19T04:43:50;63160.16;;;9.61;57.29
79138;BME280;68544;45.566;10.238;2023-11-19T04:46:15;63160.16;;;9.61;57.03
79138;BME280;68544;45.566;10.238;2023-11-19T04:48:41;63159.44;;;9.60;56.79
79138;BME280;68544;45.566;10.238;2023-11-19T04:51:06;63157.84;;;9.59;56.93
79138;BME280;68544;45.566;10.238;2023-11-19T04:53:32;63155.72;;;9.57;57.13
79138;BME280;68544;45.566;10.238;2023-11-19T04:55:57;63151.31;;;9.52;58.50
79138;BME280;68544;45.566;10.238;2023-11-19T04:58:23;63146.53;;;9.48;59.70
79138;BME280;68544;45.566;10.238;2023-11-19T05:00:48;63142.09;;;9.44;59.48
79138;BME280;68544;45.566;10.238;2023-11-19T05:03:13;63137.06;;;9.39;59.75
79138;BME280;68544;45.566;10.238;2023-11-19T05:05:38;63132.63;;;9.35;59.94
79138;BME280;68544;45.566;10.238;2023-11-19T05:08:03;63129.81;;;9.33;59.25
79138;BME280;68544;45.566;10.238;2023-11-19T05:10:30;63127.50;;;9.31;59.10
79138;BME280;68544;45.566;10.238;2023-11-19T05:12:55;63124.41;;;9.28;59.46
79138;BME280;68544;45.566;10.238;2023-11-19T05:15:21;63122.63;;;9.26;59.42
79138;BME280;68544;45.566;10.238;2023-11-19T05:17:46;63121.94;;;9.25;58.57
79138;BME280;68544;45.566;10.238;2023-11-19T05:20:11;63120.88;;;9.24;58.41
79138;BME280;68544;45.566;10.238;2023-11-19T05:22:41;63119.91;;;9.24;57.70
79138;BME280;68544;45.566;10.238;2023-11-19T05:25:07;63119.91;;;9.24;57.40
79138;BME280;68544;45.566;10.238;2023-11-19T05:27:33;63118.91;;;9.22;57.28
79138;BME280;68544;45.566;10.238;2023-11-19T05:29:59;63117.75;;;9.21;57.57
79138;BME280;68544;45.566;10.238;2023-11-19T05:32:24;63113.31;;;9.17;59.05
79138;BME280;68544;45.566;10.238;2023-11-19T05:34:49;63109.44;;;9.13;59.02
79138;BME280;68544;45.566;10.238;2023-11-19T05:37:14;63105.28;;;9.10;59.06
79138;BME280;68544;45.566;10.238;2023-11-19T05:39:39;63102.47;;;9.07;58.37
79138;BME280;68544;45.566;10.238;2023-11-19T05:42:05;63099.38;;;9.04;58.48
79138;BME280;68544;45.566;10.238;2023-11-19T05:44:30;63096.91;;;9.02;58.51
79138;BME280;68544;45.566;10.238;2023-11-19T05:46:56;63095.47;;;9.00;58.14
79138;BME280;68544;45.566;10.238;2023-11-19T05:49:21;63094.31;;;8.99;57.75
79138;BME280;68544;45.566;10.238;2023-11-19T05:51:46;63093.50;;;8.98;57.37
79138;BME280;68544;45.566;10.238;2023-11-19T05:54:11;63091.31;;;8.97;58.11
79138;BME280;68544;45.566;10.238;2023-11-19T05:56:38;63089.34;;;8.95;58.30
79138;BME280;68544;45.566;10.238;2023-11-19T05:59:03;63088.91;;;8.94;57.90
79138;BME280;68544;45.566;10.238;2023-11-19T06:01:33;63089.28;;;8.95;57.32
79138;BME280;68544;45.566;10.238;2023-11-19T06:03:58;63088.91;;;8.94;58.07
79138;BME280;68544;45.566;10.238;2023-11-19T06:06:25;63087.50;;;8.93;59.02
79138;BME280;68544;45.566;10.238;2023-11-19T06:08:51;63085.97;;;8.91;59.33
79138;BME280;68544;45.566;10.238;2023-11-19T06:11:16;63083.69;;;8.89;60.03
79138;BME280;68544;45.566;10.238;2023-11-19T06:13:44;63081.91;;;8.88;60.12
79138;BME280;68544;45.566;10.238;2023-11-19T06:16:09;63081.28;;;8.87;59.84
79138;BME280;68544;45.566;10.238;2023-11-19T06:18:34;63080.75;;;8.86;59.58
79138;BME280;68544;45.566;10.238;2023-11-19T06:21:01;63080.50;;;8.86;59.06
79138;BME280;68544;45.566;10.238;2023-11-19T06:23:26;63081.13;;;8.87;58.72
79138;BME280;68544;45.566;10.238;2023-11-19T06:25:51;63082.25;;;8.88;58.86
79138;BME280;68544;45.566;10.238;2023-11-19T06:28:16;63082.59;;;8.88;59.03
79138;BME280;68544;45.566;10.238;2023-11-19T06:30:41;63082.06;;;8.88;59.57
79138;BME280;68544;45.566;10.238;2023-11-19T06:33:07;63082.59;;;8.88;59.19
79138;BME280;68544;45.566;10.238;2023-11-19T06:35:32;63082.88;;;8.88;59.51
79138;BME280;68544;45.566;10.238;2023-11-19T06:38:01;63082.78;;;8.88;59.60
79138;BME280;68544;45.566;10.238;2023-11-19T06:40:26;63079.94;;;8.86;60.63
79138;BME280;68544;45.566;10.238;2023-11-19T06:42:51;63078.47;;;8.84;60.04
79138;BME280;68544;45.566;10.238;2023-11-19T06:45:17;63079.06;;;8.85;59.40
79138;BME280;68544;45.566;10.238;2023-11-19T06:47:42;63078.75;;;8.84;59.39
79138;BME280;68544;45.566;10.238;2023-11-19T06:50:07;63079.47;;;8.84;59.00
79138;BME280;68544;45.566;10.238;2023-11-19T06:52:34;63078.88;;;8.84;59.05
79138;BME280;68544;45.566;10.238;2023-11-19T06:54:59;63079.09;;;8.84;58.18
79138;BME280;68544;45.566;10.238;2023-11-19T06:57:24;63078.22;;;8.83;58.51
79138;BME280;68544;45.566;10.238;2023-11-19T06:59:50;63077.25;;;8.82;58.63
79138;BME280;68544;45.566;10.238;2023-11-19T07:02:15;63077.88;;;8.83;57.79
79138;BME280;68544;45.566;10.238;2023-11-19T07:04:40;63076.38;;;8.82;58.50
79138;BME280;68544;45.566;10.238;2023-11-19T07:07:05;63076.28;;;8.81;58.25
79138;BME280;68544;45.566;10.238;2023-11-19T07:09:31;63075.13;;;8.80;58.73
79138;BME280;68544;45.566;10.238;2023-11-19T07:11:56;63073.25;;;8.78;58.89
79138;BME280;68544;45.566;10.238;2023-11-19T07:14:22;63072.88;;;8.78;58.38
79138;BME280;68544;45.566;10.238;2023-11-19T07:16:48;63071.84;;;8.77;58.91
79138;BME280;68544;45.566;10.238;2023-11-19T07:19:15;63072.53;;;8.77;58.18
79138;BME280;68544;45.566;10.238;2023-11-19T07:21:43;63072.34;;;8.77;58.63
79138;BME280;68544;45.566;10.238;2023-11-19T07:24:11;63071.00;;;8.75;58.96
79138;BME280;68544;45.566;10.238;2023-11-19T07:26:42;63071.69;;;8.76;58.69
79138;BME280;68544;45.566;10.238;2023-11-19T07:29:08;63071.97;;;8.76;58.35
79138;BME280;68544;45.566;10.238;2023-11-19T07:31:33;63072.59;;;8.77;58.36
79138;BME280;68544;45.566;10.238;2023-11-19T07:33:59;63074.19;;;8.79;58.00
79138;BME280;68544;45.566;10.238;2023-11-19T07:36:24;63078.13;;;8.82;57.49
79138;BME280;68544;45.566;10.238;2023-11-19T07:38:49;63082.91;;;8.86;56.67
79138;BME280;68544;45.566;10.238;2023-11-19T07:41:15;63088.03;;;8.91;56.47
79138;BME280;68544;45.566;10.238;2023-11-19T07:43:42;63093.44;;;8.96;56.33
79138;BME280;68544;45.566;10.238;2023-11-19T07:46:11;63100.34;;;9.02;55.32
79138;BME280;68544;45.566;10.238;2023-11-19T07:48:38;63108.19;;;9.09;54.69
79138;BME280;68544;45.566;10.238;2023-11-19T07:51:03;63116.59;;;9.17;54.32
79138;BME280;68544;45.566;10.238;2023-11-19T07:53:28;63127.09;;;9.27;53.59
79138;BME280;68544;45.566;10.238;2023-11-19T07:55:53;63135.41;;;9.34;53.78
79138;BME280;68544;45.566;10.238;2023-11-19T07:58:19;63145.19;;;9.43;53.64
79138;BME280;68544;45.566;10.238;2023-11-19T08:00:44;63155.72;;;9.53;53.20
79138;BME280;68544;45.566;10.238;2023-11-19T08:03:09;63166.97;;;9.63;52.47
79138;BME280;68544;45.566;10.238;2023-11-19T08:05:35;63178.28;;;9.73;52.10
79138;BME280;68544;45.566;10.238;2023-11-19T08:08:01;63190.66;;;9.85;51.31
79138;BME280;68544;45.566;10.238;2023-11-19T08:10:26;63203.25;;;9.96;51.24
79138;BME280;68544;45.566;10.238;2023-11-19T08:12:52;63217.81;;;10.10;50.33
79138;BME280;68544;45.566;10.238;2023-11-19T08:15:17;63233.84;;;10.24;49.41
79138;BME280;68544;45.566;10.238;2023-11-19T08:17:42;63248.50;;;10.37;49.50
79138;BME280;68544;45.566;10.238;2023-11-19T08:20:08;63264.75;;;10.51;48.67
79138;BME280;68544;45.566;10.238;2023-11-19T08:22:35;63280.59;;;10.65;47.40
79138;BME280;68544;45.566;10.238;2023-11-19T08:25:01;63296.78;;;10.80;47.31
79138;BME280;68544;45.566;10.238;2023-11-19T08:27:26;63313.00;;;10.95;46.32
79138;BME280;68544;45.566;10.238;2023-11-19T08:29:54;63330.06;;;11.10;46.04
79138;BME280;68544;45.566;10.238;2023-11-19T08:32:23;63347.41;;;11.26;45.55
79138;BME280;68544;45.566;10.238;2023-11-19T08:34:48;63363.88;;;11.41;46.08
79138;BME280;68544;45.566;10.238;2023-11-19T08:37:14;63381.06;;;11.56;44.63
79138;BME280;68544;45.566;10.238;2023-11-19T08:39:40;63398.69;;;11.72;44.54
79138;BME280;68544;45.566;10.238;2023-11-19T08:42:07;63418.47;;;11.90;43.60
79138;BME280;68544;45.566;10.238;2023-11-19T08:44:32;63438.56;;;12.08;42.84
79138;BME280;68544;45.566;10.238;2023-11-19T08:46:57;63458.31;;;12.26;42.35
79138;BME280;68544;45.566;10.238;2023-11-19T08:49:22;63476.84;;;12.43;41.85
79138;BME280;68544;45.566;10.238;2023-11-19T08:51:48;63496.25;;;12.60;41.14
79138;BME280;68544;45.566;10.238;2023-11-19T08:54:13;63515.19;;;12.78;40.61
79138;BME280;68544;45.566;10.238;2023-11-19T08:56:39;63534.84;;;12.95;39.90
79138;BME280;68544;45.566;10.238;2023-11-19T08:59:04;63553.06;;;13.12;41.91
79138;BME280;68544;45.566;10.238;2023-11-19T09:01:29;63570.53;;;13.28;42.62
79138;BME280;68544;45.566;10.238;2023-11-19T09:03:55;63586.78;;;13.42;42.38
79138;BME280;68544;45.566;10.238;2023-11-19T09:06:20;63601.69;;;13.56;42.75
79138;BME280;68544;45.566;10.238;2023-11-19T09:08:45;63617.41;;;13.70;42.37
79138;BME280;68544;45.566;10.238;2023-11-19T09:11:10;63635.09;;;13.87;41.33
79138;BME280;68544;45.566;10.238;2023-11-19T09:13:36;63652.06;;;14.02;41.15
79138;BME280;68544;45.566;10.238;2023-11-19T09:16:02;63671.50;;;14.19;40.32
79138;BME280;68544;45.566;10.238;2023-11-19T09:18:30;63689.03;;;14.35;39.64
79138;BME280;68544;45.566;10.238;2023-11-19T09:20:55;63706.44;;;14.51;39.76
79138;BME280;68544;45.566;10.238;2023-11-19T09:23:20;63722.56;;;14.65;38.97
79138;BME280;68544;45.566;10.238;2023-11-19T09:25:45;63737.41;;;14.78;38.81
79138;BME280;68544;45.566;10.238;2023-11-19T09:28:11;63753.09;;;14.92;39.06
79138;BME280;68544;45.566;10.238;2023-11-19T09:30:36;63768.47;;;15.06;38.66
79138;BME280;68544;45.566;10.238;2023-11-19T09:33:01;63781.19;;;15.17;39.28
79138;BME280;68544;45.566;10.238;2023-11-19T09:35:27;63796.66;;;15.31;38.42
79138;BME280;68544;45.566;10.238;2023-11-19T09:37:52;63812.84;;;15.46;37.36
79138;BME280;68544;45.566;10.238;2023-11-19T09:40:17;63831.34;;;15.63;36.42
79138;BME280;68544;45.566;10.238;2023-11-19T09:42:43;63849.06;;;15.78;36.34
79138;BME280;68544;45.566;10.238;2023-11-19T09:45:12;63866.31;;;15.94;36.25
79138;BME280;68544;45.566;10.238;2023-11-19T09:47:38;63885.56;;;16.12;35.85
79138;BME280;68544;45.566;10.238;2023-11-19T09:50:03;63906.56;;;16.31;35.28
79138;BME280;68544;45.566;10.238;2023-11-19T09:52:30;63929.38;;;16.51;34.69
79138;BME280;68544;45.566;10.238;2023-11-19T09:54:55;63954.41;;;16.74;33.42
79138;BME280;68544;45.566;10.238;2023-11-19T09:57:20;63980.47;;;16.97;32.27
79138;BME280;68544;45.566;10.238;2023-11-19T09:59:46;64008.97;;;17.23;31.09
79138;BME280;68544;45.566;10.238;2023-11-19T10:02:12;64037.66;;;17.49;30.09
79138;BME280;68544;45.566;10.238;2023-11-19T10:04:37;64070.94;;;17.79;28.45
79138;BME280;68544;45.566;10.238;2023-11-19T10:07:04;64115.16;;;18.18;25.69
79138;BME280;68544;45.566;10.238;2023-11-19T10:09:29;64158.97;;;18.58;24.80
79138;BME280;68544;45.566;10.238;2023-11-19T10:11:54;64209.81;;;19.04;22.92
79138;BME280;68544;45.566;10.238;2023-11-19T10:14:20;64260.56;;;19.49;22.28
79138;BME280;68544;45.566;10.238;2023-11-19T10:16:47;64314.63;;;19.98;21.07
79138;BME280;68544;45.566;10.238;2023-11-19T10:19:18;64359.16;;;20.39;22.10
79138;BME280;68544;45.566;10.238;2023-11-19T10:21:44;64402.78;;;20.78;21.62
79138;BME280;68544;45.566;10.238;2023-11-19T10:24:11;64442.59;;;21.14;22.00
79138;BME280;68544;45.566;10.238;2023-11-19T10:26:36;64475.06;;;21.43;22.35
79138;BME280;68544;45.566;10.238;2023-11-19T10:29:02;64504.69;;;21.70;23.07
79138;BME280;68544;45.566;10.238;2023-11-19T10:31:27;64529.50;;;21.92;23.01
79138;BME280;68544;45.566;10.238;2023-11-19T10:33:52;64551.72;;;22.12;23.55
79138;BME280;68544;45.566;10.238;2023-11-19T10:36:18;64569.44;;;22.28;23.95
79138;BME280;68544;45.566;10.238;2023-11-19T10:38:53;64586.84;;;22.45;24.09
79138;BME280;68544;45.566;10.238;2023-11-19T10:41:31;64602.91;;;22.59;24.21
79138;BME280;68544;45.566;10.238;2023-11-19T10:43:57;64620.31;;;22.75;23.72
79138;BME280;68544;45.566;10.238;2023-11-19T10:46:23;64637.75;;;22.90;23.67
79138;BME280;68544;45.566;10.238;2023-11-19T10:49:00;64656.13;;;23.07;23.34
79138;BME280;68544;45.566;10.238;2023-11-19T10:51:26;64670.44;;;23.19;23.49
79138;BME280;68544;45.566;10.238;2023-11-19T10:53:51;64686.44;;;23.34;23.12
79138;BME280;68544;45.566;10.238;2023-11-19T10:56:17;64702.19;;;23.48;22.93
79138;BME280;68544;45.566;10.238;2023-11-19T10:58:45;64721.31;;;23.65;22.54
79138;BME280;68544;45.566;10.238;2023-11-19T11:01:13;64744.31;;;23.86;21.79
79138;BME280;68544;45.566;10.238;2023-11-19T11:03:39;64770.00;;;24.09;20.64
79138;BME280;68544;45.566;10.238;2023-11-19T11:06:05;64800.56;;;24.36;19.78
79138;BME280;68544;45.566;10.238;2023-11-19T11:08:30;64830.00;;;24.62;19.13
79138;BME280;68544;45.566;10.238;2023-11-19T11:10:56;64858.75;;;24.89;19.20
79138;BME280;68544;45.566;10.238;2023-11-19T11:13:22;64888.41;;;25.15;18.38
79138;BME280;68544;45.566;10.238;2023-11-19T11:15:52;64918.16;;;25.42;18.03
79138;BME280;68544;45.566;10.238;2023-11-19T11:18:18;64950.84;;;25.71;17.61
79138;BME280;68544;45.566;10.238;2023-11-19T11:20:44;64977.59;;;25.96;18.07
79138;BME280;68544;45.566;10.238;2023-11-19T11:28:22;65066.50;;;26.76;16.59
79138;BME280;68544;45.566;10.238;2023-11-19T11:36:19;65149.81;;;27.51;16.73
79138;BME280;68544;45.566;10.238;2023-11-19T11:38:45;65172.94;;;27.71;16.49
79138;BME280;68544;45.566;10.238;2023-11-19T11:41:16;65191.47;;;27.88;16.90
79138;BME280;68544;45.566;10.238;2023-11-19T11:43:44;65200.88;;;27.97;18.14
79138;BME280;68544;45.566;10.238;2023-11-19T11:48:57;65219.16;;;28.13;18.23
79138;BME280;68544;45.566;10.238;2023-11-19T11:54:07;65240.94;;;28.33;17.12
79138;BME280;68544;45.566;10.238;2023-11-19T11:56:33;65255.81;;;28.46;17.15
79138;BME280;68544;45.566;10.238;2023-11-19T11:58:59;65272.50;;;28.61;16.71
79138;BME280;68544;45.566;10.238;2023-11-19T12:01:25;65285.03;;;28.73;16.96
79138;BME280;68544;45.566;10.238;2023-11-19T12:03:55;65298.28;;;28.85;17.12
79138;BME280;68544;45.566;10.238;2023-11-19T12:06:21;65307.59;;;28.94;17.09
79138;BME280;68544;45.566;10.238;2023-11-19T12:08:46;65316.34;;;29.02;17.31
79138;BME280;68544;45.566;10.238;2023-11-19T12:11:12;65327.25;;;29.12;17.11
79138;BME280;68544;45.566;10.238;2023-11-19T12:13:47;65336.59;;;29.21;17.17
79138;BME280;68544;45.566;10.238;2023-11-19T12:16:13;65341.56;;;29.25;17.24
79138;BME280;68544;45.566;10.238;2023-11-19T12:18:39;65339.75;;;29.24;18.32
79138;BME280;68544;45.566;10.238;2023-11-19T12:21:05;65330.03;;;29.15;19.84
79138;BME280;68544;45.566;10.238;2023-11-19T12:23:32;65314.81;;;29.02;20.90
79138;BME280;68544;45.566;10.238;2023-11-19T12:25:57;65293.38;;;28.83;22.15
79138;BME280;68544;45.566;10.238;2023-11-19T12:28:23;65268.06;;;28.61;22.96
79138;BME280;68544;45.566;10.238;2023-11-19T12:30:51;65239.69;;;28.35;24.14
79138;BME280;68544;45.566;10.238;2023-11-19T12:33:17;65210.13;;;28.08;25.00
79138;BME280;68544;45.566;10.238;2023-11-19T12:35:43;65176.13;;;27.78;26.23
79138;BME280;68544;45.566;10.238;2023-11-19T12:38:17;65138.69;;;27.45;27.44
79138;BME280;68544;45.566;10.238;2023-11-19T12:40:43;65099.84;;;27.10;28.68
79138;BME280;68544;45.566;10.238;2023-11-19T12:43:08;65061.53;;;26.76;29.13
79138;BME280;68544;45.566;10.238;2023-11-19T12:45:36;65024.19;;;26.43;29.57
79138;BME280;68544;45.566;10.238;2023-11-19T12:48:05;64987.44;;;26.10;30.05
79138;BME280;68544;45.566;10.238;2023-11-19T12:50:49;64952.22;;;25.78;30.84
79138;BME280;68544;45.566;10.238;2023-11-19T12:53:15;64918.34;;;25.48;31.35
79138;BME280;68544;45.566;10.238;2023-11-19T12:55:40;64886.47;;;25.19;31.66
79138;BME280;68544;45.566;10.238;2023-11-19T12:58:05;64854.22;;;24.90;32.37
79138;BME280;68544;45.566;10.238;2023-11-19T13:00:31;64821.75;;;24.61;32.77
79138;BME280;68544;45.566;10.238;2023-11-19T13:02:56;64790.00;;;24.33;33.54
79138;BME280;68544;45.566;10.238;2023-11-19T13:08:00;64730.34;;;23.80;34.41